Detall de PIREP

Printer-friendly versionPDF version

[2013/08/17 17:02:00]
Flight IATA:CT1001
Pilot Number:026
Company ICAO:CAT
Aircraft Type:F50/A
PAX:50
Aircraft Registration:PAOB
Departing Airport: LEMH
Destination Airport: LFKJ
Alternate Airport:LIEO
Online: VATSIM
Route:MEROS B16 LUMAS UT16 TINOT
Flight Level:F240
No Slew and time accel
No pause
Crash detect
Detect pilot in Cockpit between each 30 and 45 minutes
17:02 Zero fuel Weight: 38483 Lbs, Fuel Weight: 3750 Lbs
17:02 VATSIM:LEMH 171630Z 07008KT 030V110 9999 FEW018 26/20 Q1017
17:02 VATSIM:LFKJ 171630Z 20007KT 9999 FEW053 29/20 Q1015 NOSIG
17:02 VOICE CATALONIAN / MEDITERRANEAN ODYSSEY LEG1
17:05 Parking Brakes off
17:13 Take-off
17:13 Take off Weight: 42141 Lbs
17:13 Wind: 064º @ 009 Knots Heading: 011º
17:13 POS N39º 52´ 09´´ E004º 13´ 12´´
17:13 Gear Up: 116 Knots
17:13 Flaps:3 at 116 Knots
17:13 Flaps:2 at 127 Knots
17:14 Flaps:1 at 130 Knots
17:15 Flaps:0 at 131 Knots
17:28 Wind:061º@024 Knots Heading: 014º Ground Speed: 184 Knots Altitude 16650 ft
17:35 TOC
17:35 Fuel Weight: 2963 Lb
17:36 TOD
17:36 Fuel Weight: 2958 Lb
17:36 TOC
17:36 Fuel Weight: 2952 Lb
17:37 TOD
17:37 Fuel Weight: 2930 Lb
17:37 TOC
17:37 Fuel Weight: 2922 Lb
17:43 Wind:059º@002 Knots Heading: 010º Ground Speed: 252 Knots Altitude 24078 ft
17:58 Wind:327º@015 Knots Heading: 078º Ground Speed: 267 Knots Altitude 24058 ft
18:12 TOD
18:12 Fuel Weight: 2165 Lb
18:13 Wind:342º@022 Knots Heading: 079º Ground Speed: 260 Knots Altitude 23116 ft
18:28 Wind:186º@008 Knots Heading: 114º Ground Speed: 238 Knots Altitude 6305 ft
18:40 Flaps:1 at 179 Knots
18:41 Gear Down: 160 Knots
18:41 Flaps:2 at 156 Knots
18:41 Flaps:3 at 139 Knots
18:42 Flaps:4 at 121 Knots
18:43 Wind:136º@004 Knots Heading: 203º Ground Speed: 119 Knots Altitude 482 ft
18:44 TouchDown:Rate -112 ft/min Speed: 95 Knots
18:44 VATSIM:LFKJ 171830Z 16004KT 110V180 9999 FEW066 27/17 Q1015 NOSIG
18:44 Land
18:44 Wind:134º@004 Knots
18:44 Heading: 204º
18:44 Flight Duration: 01:31
18:44 Landing Weight: 40138 Lbs
18:44 POS N41º 55´ 06´´ E008º 47´ 55´´
18:47 Parking brakes on
18:47 Block to Block Duration: 01:42
18:47 Final Fuel: 1629 Lbls
18:47 Spent Fuel: 2120 Lbls
18:47 Flight Length: 269 NM
18:47 TOD Land Length: 117 NM

Exportar CSV

Powered by Drupal - Modified by Danger4k